WMKK/KUL METAR and TAF weather

Enter ICAO airport designator
Station Type Date Time Source
WMKK METAR 2020/02/25 11:00 UTC NOAA

WMKK 251100Z VRB02KT 9999 FEW017CB 30/24 Q1008 NOSIG


Station Type Date Time Source
WMKK Decoded METAR 2020/02/25 11:00 UTC NOAA

Sepang/KL International Airport, Malaysia (WMKK) 02-44N 101-42E 22M
Feb 25, 2020 - 06:00 AM EST / 2020.02.25 1100 UTC
Wind: Variable at 2 MPH (2 KT):0
Visibility: greater than 7 mile(s):0
Sky conditions: mostly clear
Weather: Cumulonimbus clouds observed
Temperature: 86 F (30 C)
Heat index: 95.0 F (35.0 C):1
Dew Point: 75 F (24 C)
Relative Humidity: 70%
Pressure (altimeter): 29.77 in. Hg (1008 hPa)
ob: WMKK 251100Z VRB02KT 9999 FEW017CB 30/24 Q1008 NOSIG
cycle: 11

Station Type Date Time Source
WMKK TAF 2020/02/25 12:19 UTC NOAA

TAF WMKK 251100Z 2512/2618 05006KT 9999 FEW030
BECMG 2605/2606 04010KT
TEMPO 2607/2610 20005KT FEW018
BECMG 2612/2613 03006KT FEW030

Example: see airport list